Time;durP1;ratioP1;P1;durP2;ratioP2;P2;SDS_P1;SDS_P2;PMS_P1;PMS_P2;Temp;Humidity;BMP_temperature;BMP_pressure;BME280_temperature;BME280_humidity;BME280_pressure;Samples;Min_cycle;Max_cycle;Signal;HPM_P1;HPM_P2
2022/06/09 00:01:29;;;;;;;0.30;0.30;;;14.60;99.90;;;;;;5055048;28;20480;-81
2022/06/09 00:04:02;;;;;;;0.30;0.27;;;14.70;99.90;;;;;;5054902;28;20476;-81
2022/06/09 00:06:37;;;;;;;0.30;0.20;;;14.70;99.90;;;;;;5054987;28;20434;-81
2022/06/09 00:09:05;;;;;;;0.30;0.30;;;14.60;99.90;;;;;;5054874;28;20900;-80
2022/06/09 00:11:36;;;;;;;0.80;0.30;;;14.60;99.90;;;;;;5054768;28;20462;-81
2022/06/09 00:14:04;;;;;;;0.30;0.20;;;14.60;99.90;;;;;;5054768;28;20484;-81
2022/06/09 00:16:31;;;;;;;0.30;0.30;;;14.60;99.90;;;;;;5054455;28;20961;-81
2022/06/09 00:18:57;;;;;;;0.30;0.30;;;14.50;99.90;;;;;;5054435;28;20454;-81
2022/06/09 00:21:24;;;;;;;0.30;0.30;;;14.50;99.90;;;;;;5054620;28;20450;-81
2022/06/09 00:23:52;;;;;;;1.83;0.30;;;14.50;99.90;;;;;;5054179;28;20473;-81
2022/06/09 00:26:19;;;;;;;0.30;0.23;;;14.40;99.90;;;;;;5054145;28;20465;-80
2022/06/09 00:28:47;;;;;;;0.30;0.30;;;14.20;99.90;;;;;;5054454;28;20806;-80
2022/06/09 00:31:13;;;;;;;0.40;0.27;;;14.10;99.90;;;;;;5054236;28;20437;-80
2022/06/09 00:33:40;;;;;;;0.40;0.30;;;14.00;99.90;;;;;;5054222;28;20489;-80
2022/06/09 00:36:08;;;;;;;0.97;0.43;;;13.90;99.90;;;;;;5054007;28;20953;-80
2022/06/09 00:38:35;;;;;;;0.40;0.30;;;13.80;99.90;;;;;;5053997;28;20449;-80
2022/06/09 00:41:03;;;;;;;0.50;0.30;;;13.80;99.90;;;;;;5054290;28;20461;-79
2022/06/09 00:43:30;;;;;;;0.30;0.30;;;13.70;99.90;;;;;;5054180;28;20457;-79
2022/06/09 00:46:11;;;;;;;0.30;0.30;;;13.70;99.90;;;;;;5054179;28;20450;-79
2022/06/09 00:48:43;;;;;;;0.40;0.30;;;13.70;99.90;;;;;;5054192;28;20437;-79
2022/06/09 00:51:19;;;;;;;0.30;0.30;;;13.70;99.90;;;;;;5053817;28;20936;-79
2022/06/09 00:53:46;;;;;;;0.30;0.20;;;13.70;99.90;;;;;;5053973;28;20489;-79
2022/06/09 00:56:16;;;;;;;0.30;0.20;;;13.70;99.90;;;;;;5054014;28;20442;-79
2022/06/09 00:58:46;;;;;;;0.40;0.30;;;13.70;99.90;;;;;;5053633;28;20964;-79
2022/06/09 01:01:16;;;;;;;0.30;0.30;;;13.70;99.90;;;;;;5053949;28;20434;-79
2022/06/09 01:03:49;;;;;;;0.30;0.30;;;13.70;99.90;;;;;;5053839;28;20462;-79
2022/06/09 01:06:18;;;;;;;0.30;0.30;;;13.70;99.90;;;;;;5053851;28;20435;-79
2022/06/09 01:08:50;;;;;;;0.60;0.40;;;13.70;99.90;;;;;;5053466;28;20446;-79
2022/06/09 01:11:18;;;;;;;0.30;0.30;;;13.70;99.90;;;;;;5053535;28;20996;-79
2022/06/09 01:13:45;;;;;;;0.40;0.30;;;13.60;99.90;;;;;;5053535;28;20485;-79
2022/06/09 01:16:22;;;;;;;0.30;0.20;;;13.60;99.90;;;;;;5053407;28;20430;-79
2022/06/09 01:18:57;;;;;;;0.40;0.30;;;13.60;99.90;;;;;;5053323;28;20437;-79
2022/06/09 01:21:56;;;;;;;1.03;0.30;;;13.60;99.90;;;;;;5053644;28;20430;-79
2022/06/09 01:24:59;;;;;;;0.30;0.30;;;13.50;99.90;;;;;;5053422;28;20470;-79
2022/06/09 01:27:50;;;;;;;0.30;0.30;;;13.50;99.90;;;;;;5053561;28;20425;-79
2022/06/09 01:30:20;;;;;;;0.30;0.20;;;13.50;99.90;;;;;;5052937;28;20425;-79
2022/06/09 01:32:56;;;;;;;0.30;0.30;;;13.50;99.90;;;;;;5053016;28;20472;-79
2022/06/09 01:35:28;;;;;;;0.30;0.30;;;13.50;99.90;;;;;;5053460;28;20438;-79
2022/06/09 01:37:58;;;;;;;0.30;0.20;;;13.50;99.90;;;;;;5053108;28;20437;-79
2022/06/09 01:40:25;;;;;;;0.40;0.30;;;13.40;99.90;;;;;;5053062;28;20946;-79
2022/06/09 01:42:54;;;;;;;0.30;0.30;;;13.40;99.90;;;;;;5052937;28;20453;-79
2022/06/09 01:45:26;;;;;;;0.30;0.30;;;13.40;99.90;;;;;;5053291;28;20504;-79
2022/06/09 01:48:00;;;;;;;0.30;0.30;;;13.40;99.90;;;;;;5053041;28;20932;-79
2022/06/09 01:50:35;;;;;;;0.30;0.30;;;13.40;99.90;;;;;;5053297;28;20445;-79
2022/06/09 01:53:05;;;;;;;0.40;0.30;;;13.40;99.90;;;;;;5052860;28;20481;-79
2022/06/09 01:55:36;;;;;;;0.30;0.20;;;13.40;99.90;;;;;;5053223;28;20445;-80
2022/06/09 01:58:04;;;;;;;0.40;0.30;;;13.40;99.90;;;;;;5053353;28;20450;-79
2022/06/09 02:00:32;;;;;;;0.30;0.30;;;13.40;99.90;;;;;;5052909;28;20430;-79
2022/06/09 02:03:04;;;;;;;0.40;0.30;;;13.30;99.90;;;;;;5052702;28;20953;-79
2022/06/09 02:05:35;;;;;;;0.30;0.20;;;13.30;99.90;;;;;;5053407;28;20487;-79
2022/06/09 02:08:05;;;;;;;0.47;0.30;;;13.30;99.90;;;;;;5053093;28;20440;-79
2022/06/09 02:10:35;;;;;;;0.30;0.30;;;13.20;99.90;;;;;;5053378;28;20541;-79
2022/06/09 02:13:05;;;;;;;0.30;0.30;;;13.30;99.90;;;;;;5052620;28;20485;-79
2022/06/09 02:15:36;;;;;;;0.30;0.30;;;13.30;99.90;;;;;;5052748;28;20441;-79
2022/06/09 02:18:09;;;;;;;0.30;0.20;;;13.20;99.90;;;;;;5053060;28;20860;-79
2022/06/09 02:20:37;;;;;;;0.30;0.20;;;13.20;99.90;;;;;;5053249;28;20898;-79
2022/06/09 02:23:04;;;;;;;0.30;0.30;;;13.20;99.90;;;;;;5052635;28;20450;-79
2022/06/09 02:25:31;;;;;;;0.40;0.37;;;13.20;99.90;;;;;;5052338;28;21024;-79
2022/06/09 02:27:57;;;;;;;0.30;0.30;;;13.20;99.90;;;;;;5052927;28;20438;-79
2022/06/09 02:30:25;;;;;;;0.30;0.30;;;13.20;99.90;;;;;;5052590;28;20820;-79
2022/06/09 02:32:51;;;;;;;0.30;0.30;;;13.20;99.90;;;;;;5052755;28;20477;-79
2022/06/09 02:35:20;;;;;;;0.30;0.30;;;13.20;99.90;;;;;;5052857;28;20445;-79
2022/06/09 02:37:46;;;;;;;0.70;0.70;;;13.20;99.90;;;;;;5052536;28;20434;-79
2022/06/09 02:40:13;;;;;;;0.30;0.30;;;13.20;99.90;;;;;;5052498;28;20438;-79
2022/06/09 02:42:40;;;;;;;0.60;0.30;;;13.20;99.90;;;;;;5055887;28;20445;-79
2022/06/09 02:45:09;;;;;;;0.30;0.20;;;13.10;99.90;;;;;;5056421;28;20465;-79
2022/06/09 02:47:36;;;;;;;0.40;0.33;;;13.10;99.90;;;;;;5056619;28;20464;-79
2022/06/09 02:50:03;;;;;;;0.30;0.30;;;13.10;99.90;;;;;;5056073;28;20873;-79
2022/06/09 02:52:32;;;;;;;0.40;0.30;;;13.10;99.90;;;;;;5056271;28;20449;-79
2022/06/09 02:54:58;;;;;;;0.30;0.30;;;13.10;99.90;;;;;;5056215;28;20477;-79
2022/06/09 02:57:25;;;;;;;0.30;0.30;;;13.00;99.90;;;;;;5056292;28;20948;-79
2022/06/09 02:59:52;;;;;;;0.30;0.30;;;13.00;99.90;;;;;;5056007;28;20437;-79
2022/06/09 03:02:19;;;;;;;0.40;0.30;;;13.00;99.90;;;;;;5055926;28;20426;-79
2022/06/09 03:04:47;;;;;;;0.37;0.27;;;13.00;99.90;;;;;;5056063;28;20468;-79
2022/06/09 03:07:14;;;;;;;0.30;0.30;;;13.00;99.90;;;;;;5055808;28;20461;-79
2022/06/09 03:09:42;;;;;;;0.30;0.27;;;13.00;99.90;;;;;;5055715;28;20835;-79
2022/06/09 03:12:10;;;;;;;0.30;0.30;;;13.00;99.90;;;;;;5056044;28;20426;-79
2022/06/09 03:14:37;;;;;;;0.30;0.30;;;13.00;99.90;;;;;;5055475;28;21051;-79
2022/06/09 03:17:04;;;;;;;0.40;0.30;;;13.00;99.90;;;;;;5055917;28;20456;-79
2022/06/09 03:19:31;;;;;;;0.50;0.37;;;13.00;99.90;;;;;;5055606;28;20441;-79
2022/06/09 03:21:58;;;;;;;0.70;0.30;;;13.00;99.90;;;;;;5055817;28;20445;-79
2022/06/09 03:24:24;;;;;;;0.40;0.30;;;13.00;99.90;;;;;;5055518;28;20472;-80
2022/06/09 03:26:53;;;;;;;0.30;0.23;;;13.00;99.90;;;;;;5055306;28;20470;-79
2022/06/09 03:29:19;;;;;;;0.40;0.30;;;13.00;99.90;;;;;;5055584;28;20456;-79
2022/06/09 03:31:47;;;;;;;0.30;0.20;;;13.00;99.90;;;;;;5055630;28;20852;-79
2022/06/09 03:34:13;;;;;;;4.13;0.40;;;13.00;99.90;;;;;;5055057;28;20485;-79
2022/06/09 03:36:43;;;;;;;0.30;0.30;;;13.00;99.90;;;;;;5055343;28;20453;-80
2022/06/09 03:39:10;;;;;;;0.37;0.33;;;13.00;99.90;;;;;;5055352;28;20493;-80
2022/06/09 03:41:36;;;;;;;0.40;0.30;;;13.00;99.90;;;;;;5055502;28;20445;-79
2022/06/09 03:44:05;;;;;;;0.70;0.40;;;13.00;99.90;;;;;;5055344;28;20474;-79
2022/06/09 03:46:32;;;;;;;0.40;0.40;;;13.00;99.90;;;;;;5055118;28;20788;-80
2022/06/09 03:48:59;;;;;;;0.40;0.40;;;13.00;99.90;;;;;;5055303;28;20442;-80
2022/06/09 03:51:26;;;;;;;0.30;0.30;;;13.00;99.90;;;;;;5055294;28;20456;-80
2022/06/09 03:53:53;;;;;;;0.40;0.40;;;13.00;99.90;;;;;;5054196;28;20992;-80
2022/06/09 03:56:21;;;;;;;0.50;0.30;;;13.00;99.90;;;;;;5055186;28;20445;-79
2022/06/09 03:58:49;;;;;;;0.50;0.40;;;13.00;99.90;;;;;;5055548;28;20450;-80
2022/06/09 04:01:18;;;;;;;0.40;0.30;;;13.00;99.90;;;;;;5055113;28;20449;-80
2022/06/09 04:03:46;;;;;;;0.40;0.30;;;13.00;99.90;;;;;;5054649;28;20973;-80
2022/06/09 04:06:14;;;;;;;0.50;0.40;;;13.00;99.90;;;;;;5054737;28;20438;-80
2022/06/09 04:08:41;;;;;;;0.70;0.30;;;12.90;99.90;;;;;;5054755;28;20453;-79
2022/06/09 04:11:09;;;;;;;0.40;0.30;;;12.90;99.90;;;;;;5054768;28;20454;-80
2022/06/09 04:13:36;;;;;;;0.30;0.30;;;12.90;99.90;;;;;;5055063;28;20482;-80
2022/06/09 04:16:04;;;;;;;1.03;0.57;;;12.90;99.90;;;;;;5054796;28;20853;-80
2022/06/09 04:18:32;;;;;;;0.30;0.30;;;12.90;99.90;;;;;;5054714;28;20445;-80
2022/06/09 04:20:59;;;;;;;0.30;0.27;;;13.00;99.90;;;;;;5054711;28;20438;-79
2022/06/09 04:23:27;;;;;;;0.30;0.30;;;13.00;99.90;;;;;;5054560;28;20565;-80
2022/06/09 04:25:54;;;;;;;0.30;0.30;;;13.00;99.90;;;;;;5054121;28;20996;-81
2022/06/09 04:28:21;;;;;;;0.30;0.30;;;13.00;99.90;;;;;;5055261;28;20454;-81
2022/06/09 04:30:48;;;;;;;0.40;0.30;;;13.00;99.90;;;;;;5054547;28;20454;-81
2022/06/09 04:33:15;;;;;;;0.40;0.30;;;13.00;99.90;;;;;;5054336;28;20512;-81
2022/06/09 04:35:43;;;;;;;0.57;0.30;;;13.00;99.90;;;;;;5054019;28;20450;-81
2022/06/09 04:38:11;;;;;;;0.40;0.40;;;12.90;99.90;;;;;;5054871;28;20458;-81
2022/06/09 04:40:39;;;;;;;0.60;0.30;;;12.90;99.90;;;;;;5054328;28;20473;-80
2022/06/09 04:43:09;;;;;;;0.57;0.57;;;12.90;99.90;;;;;;5053731;28;20462;-81
2022/06/09 04:45:36;;;;;;;0.40;0.40;;;12.90;99.90;;;;;;5054130;28;20453;-81
2022/06/09 04:48:03;;;;;;;0.40;0.33;;;12.90;99.90;;;;;;5053878;28;20832;-81
2022/06/09 04:50:31;;;;;;;0.50;0.40;;;13.00;99.90;;;;;;5053832;28;20945;-81
2022/06/09 04:52:59;;;;;;;0.40;0.40;;;13.00;99.90;;;;;;5053983;28;20445;-80
2022/06/09 04:55:26;;;;;;;0.30;0.30;;;13.10;99.90;;;;;;5054032;28;20449;-81
2022/06/09 04:57:53;;;;;;;0.40;0.30;;;13.10;99.90;;;;;;5053686;28;20446;-81
2022/06/09 05:00:20;;;;;;;1.53;0.50;;;13.10;99.90;;;;;;5053993;28;20446;-81
2022/06/09 05:02:47;;;;;;;0.40;0.30;;;13.20;99.90;;;;;;5053716;28;20465;-80
2022/06/09 05:05:19;;;;;;;0.50;0.50;;;13.20;99.90;;;;;;5053183;28;20449;-80
2022/06/09 05:07:46;;;;;;;0.60;0.40;;;13.20;99.90;;;;;;5053883;28;20430;-81
2022/06/09 05:10:14;;;;;;;0.50;0.50;;;13.20;99.90;;;;;;5053626;28;20446;-80
2022/06/09 05:12:42;;;;;;;0.40;0.30;;;13.30;99.90;;;;;;5053762;28;20450;-81
2022/06/09 05:15:12;;;;;;;0.30;0.30;;;13.30;99.90;;;;;;5053381;28;20504;-81
2022/06/09 05:17:39;;;;;;;0.30;0.30;;;13.40;99.90;;;;;;5054214;28;20446;-80
2022/06/09 05:20:07;;;;;;;0.40;0.40;;;13.50;99.90;;;;;;5053326;28;20442;-81
2022/06/09 05:22:33;;;;;;;0.30;0.30;;;13.70;99.90;;;;;;5053598;28;20453;-81
2022/06/09 05:25:00;;;;;;;0.40;0.30;;;13.80;99.90;;;;;;5052885;28;21020;-81
2022/06/09 05:27:29;;;;;;;0.30;0.30;;;13.90;99.90;;;;;;5053561;28;20438;-81
2022/06/09 05:29:56;;;;;;;0.30;0.30;;;14.00;99.90;;;;;;5053457;28;20448;-81
2022/06/09 05:32:23;;;;;;;0.40;0.40;;;14.00;99.90;;;;;;5053517;28;20449;-81
2022/06/09 05:34:50;;;;;;;0.30;0.30;;;14.10;99.90;;;;;;5053267;28;20489;-80
2022/06/09 05:37:18;;;;;;;0.73;0.40;;;14.20;99.90;;;;;;5053041;28;20461;-81
2022/06/09 05:45:16;;;;;;;0.40;0.40;;;14.50;99.90;;;;;;5053343;28;20405;-81
2022/06/09 05:47:43;;;;;;;0.40;0.30;;;14.50;99.90;;;;;;5053269;28;20460;-80
2022/06/09 05:50:11;;;;;;;0.47;0.40;;;14.50;99.90;;;;;;5053271;28;20457;-80
2022/06/09 05:52:38;;;;;;;0.40;0.37;;;14.70;99.90;;;;;;5053273;28;20449;-80
2022/06/09 05:55:07;;;;;;;0.40;0.40;;;14.70;99.90;;;;;;5052728;28;20996;-80
2022/06/09 05:57:37;;;;;;;0.50;0.50;;;14.70;99.90;;;;;;5053076;28;20519;-81
2022/06/09 06:00:05;;;;;;;0.40;0.30;;;14.90;99.90;;;;;;5053869;28;20473;-81
2022/06/09 06:02:32;;;;;;;0.73;0.43;;;15.00;99.90;;;;;;5052959;28;20434;-81
2022/06/09 06:04:59;;;;;;;0.43;0.43;;;15.20;99.90;;;;;;5052957;28;20497;-81
2022/06/09 06:07:26;;;;;;;0.40;0.33;;;15.30;99.90;;;;;;5052719;28;20434;-82
2022/06/09 06:09:52;;;;;;;0.40;0.40;;;15.30;99.90;;;;;;5052712;28;20450;-81
2022/06/09 06:12:20;;;;;;;0.40;0.30;;;15.30;99.90;;;;;;5052997;28;20434;-80
2022/06/09 06:14:49;;;;;;;0.50;0.40;;;15.40;99.90;;;;;;5052542;28;20481;-81
2022/06/09 06:17:17;;;;;;;0.37;0.30;;;15.40;99.90;;;;;;5055961;28;20453;-81
2022/06/09 06:19:43;;;;;;;2.10;0.50;;;15.40;99.90;;;;;;5056783;28;20458;-81
2022/06/09 06:22:10;;;;;;;1.60;0.30;;;15.40;99.90;;;;;;5056807;28;21012;-81
2022/06/09 06:24:37;;;;;;;0.30;0.30;;;15.30;99.90;;;;;;5056370;28;20980;-81
2022/06/09 06:27:04;;;;;;;0.70;0.50;;;15.30;99.90;;;;;;5056636;28;20437;-81
2022/06/09 06:29:31;;;;;;;0.37;0.30;;;15.30;99.90;;;;;;5056554;28;20437;-81
2022/06/09 06:31:59;;;;;;;0.40;0.30;;;15.40;99.90;;;;;;5056543;28;20897;-81
2022/06/09 06:34:26;;;;;;;0.40;0.37;;;15.80;99.90;;;;;;5056778;28;20478;-81
2022/06/09 06:36:53;;;;;;;1.00;0.40;;;16.40;99.90;;;;;;5056675;28;20454;-81
2022/06/09 06:39:20;;;;;;;0.40;0.30;;;16.90;99.90;;;;;;5056639;28;20446;-81
2022/06/09 06:41:46;;;;;;;0.30;0.30;;;17.60;99.90;;;;;;5056631;28;20452;-81
2022/06/09 06:44:13;;;;;;;0.50;0.40;;;18.00;99.90;;;;;;5056464;28;20465;-81
2022/06/09 06:46:40;;;;;;;0.50;0.50;;;18.20;99.90;;;;;;5056278;28;20410;-81
2022/06/09 06:49:09;;;;;;;0.30;0.30;;;18.20;99.90;;;;;;5056224;28;20429;-81
2022/06/09 06:51:37;;;;;;;0.30;0.30;;;17.90;99.90;;;;;;5056450;28;20433;-81
2022/06/09 06:54:06;;;;;;;0.50;0.47;;;17.50;99.90;;;;;;5056217;28;20481;-81
2022/06/09 06:56:34;;;;;;;0.37;0.33;;;16.90;99.90;;;;;;5056386;28;20410;-81
2022/06/09 06:59:01;;;;;;;0.50;0.40;;;16.70;99.90;;;;;;5056292;28;20434;-81
2022/06/09 07:01:28;;;;;;;0.30;0.30;;;16.50;99.90;;;;;;5056277;28;20434;-81
2022/06/09 07:03:55;;;;;;;0.40;0.37;;;16.30;99.90;;;;;;5055768;28;20845;-81
2022/06/09 07:06:24;;;;;;;0.40;0.40;;;16.30;99.90;;;;;;5056155;28;20441;-81
2022/06/09 07:08:51;;;;;;;0.40;0.40;;;16.40;99.90;;;;;;5056195;28;20437;-81
2022/06/09 07:11:18;;;;;;;0.40;0.30;;;16.40;99.90;;;;;;5055719;28;20454;-81
2022/06/09 07:13:44;;;;;;;0.40;0.40;;;16.50;99.90;;;;;;5055817;28;20468;-81
2022/06/09 07:16:12;;;;;;;0.30;0.20;;;16.80;99.90;;;;;;5055959;28;20448;-81
2022/06/09 07:18:39;;;;;;;0.30;0.30;;;16.90;99.90;;;;;;5055899;28;20864;-81
2022/06/09 07:21:06;;;;;;;0.30;0.30;;;17.10;99.90;;;;;;5055555;28;20450;-81
2022/06/09 07:23:36;;;;;;;0.40;0.33;;;17.20;99.90;;;;;;5055541;28;20470;-81
2022/06/09 07:26:04;;;;;;;0.70;0.30;;;17.60;99.90;;;;;;5055231;28;20473;-82
2022/06/09 07:28:31;;;;;;;0.37;0.30;;;17.80;99.90;;;;;;5054734;28;20544;-82
2022/06/09 07:31:00;;;;;;;0.40;0.40;;;18.00;99.90;;;;;;5055989;28;20434;-82
2022/06/09 07:33:30;;;;;;;0.40;0.30;;;18.30;99.90;;;;;;5056573;28;20473;-82
2022/06/09 07:35:58;;;;;;;0.30;0.30;;;18.70;99.90;;;;;;5055590;28;20481;-83
2022/06/09 07:38:27;;;;;;;5.40;1.33;;;18.90;99.90;;;;;;5055273;28;20438;-82
2022/06/09 07:40:55;;;;;;;0.93;0.60;;;19.40;99.90;;;;;;5055137;28;20455;-82
2022/06/09 07:43:22;;;;;;;0.40;0.40;;;19.90;99.90;;;;;;5055072;28;20469;-82
2022/06/09 07:45:50;;;;;;;2.13;0.40;;;20.50;99.90;;;;;;5055191;28;20449;-81
2022/06/09 07:48:19;;;;;;;1.30;0.47;;;21.30;99.90;;;;;;5055218;28;20544;-80
2022/06/09 07:50:47;;;;;;;0.50;0.50;;;22.00;99.90;;;;;;5055270;28;20868;-80
2022/06/09 07:53:13;;;;;;;1.23;0.30;;;22.10;99.90;;;;;;5055185;28;20218;-80
2022/06/09 07:55:40;;;;;;;0.70;0.55;;;22.70;99.90;;;;;;5055066;28;20233;-80
2022/06/09 07:58:08;;;;;;;0.85;0.35;;;23.10;99.90;;;;;;5055116;28;20206;-80
2022/06/09 08:00:36;;;;;;;0.40;0.40;;;23.40;99.90;;;;;;5055442;28;20202;-80
2022/06/09 08:03:03;;;;;;;0.60;0.60;;;23.20;99.90;;;;;;5055034;28;20203;-80
2022/06/09 08:05:32;;;;;;;0.30;0.30;;;22.90;99.90;;;;;;5055016;28;20195;-80
2022/06/09 08:07:59;;;;;;;0.40;0.40;;;22.60;99.90;;;;;;5054948;28;20209;-80
2022/06/09 08:10:27;;;;;;;0.52;0.50;;;22.80;99.90;;;;;;5055053;28;20202;-82
2022/06/09 08:12:57;;;;;;;1.17;0.85;;;22.90;99.90;;;;;;5054511;28;20209;-82
2022/06/09 08:15:27;;;;;;;0.40;0.40;;;23.10;99.90;;;;;;5054733;28;20219;-82
2022/06/09 08:17:54;;;;;;;0.40;0.32;;;23.30;99.90;;;;;;5054525;28;20622;-82
2022/06/09 08:20:21;;;;;;;0.40;0.40;;;23.20;99.90;;;;;;5054854;28;20210;-82
2022/06/09 08:22:48;;;;;;;0.30;0.30;;;23.50;99.90;;;;;;5054833;28;20203;-82
2022/06/09 08:25:17;;;;;;;0.30;0.30;;;23.80;99.90;;;;;;5056911;28;20230;-80
2022/06/09 08:27:46;;;;;;;0.60;0.57;;;23.90;99.90;;;;;;5074092;28;20199;-82
2022/06/09 08:30:16;;;;;;;1.08;0.40;;;24.10;99.90;;;;;;5075305;28;20212;-82
2022/06/09 08:32:45;;;;;;;0.40;0.40;;;24.30;99.90;;;;;;5075012;28;20202;-81
2022/06/09 08:35:16;;;;;;;0.30;0.30;;;24.50;99.90;;;;;;5058620;28;20218;-82
2022/06/09 08:37:45;;;;;;;0.40;0.35;;;24.60;99.90;;;;;;5054420;28;20206;-82
2022/06/09 08:40:15;;;;;;;1.73;0.40;;;24.30;99.50;;;;;;5053961;28;20529;-82
2022/06/09 08:42:53;;;;;;;0.55;0.55;;;23.50;97.90;;;;;;5054351;28;20196;-82
2022/06/09 08:45:26;;;;;;;1.27;0.70;;;23.00;99.90;;;;;;5054322;28;20183;-82
2022/06/09 08:47:56;;;;;;;0.40;0.30;;;22.90;99.90;;;;;;5054008;28;20202;-82
2022/06/09 08:50:26;;;;;;;0.40;0.30;;;23.20;99.90;;;;;;5054022;28;20205;-82
2022/06/09 08:52:57;;;;;;;0.40;0.40;;;23.60;99.90;;;;;;5053909;28;20187;-83
2022/06/09 08:55:28;;;;;;;0.30;0.30;;;23.70;99.90;;;;;;5054126;28;20210;-82
2022/06/09 08:57:59;;;;;;;0.32;0.30;;;23.70;98.60;;;;;;5053898;28;20270;-82
2022/06/09 09:00:32;;;;;;;0.40;0.30;;;23.40;99.30;;;;;;5053781;28;20538;-81
2022/06/09 09:03:04;;;;;;;0.35;0.30;;;23.20;99.40;;;;;;5053639;28;20554;-82
2022/06/09 09:05:36;;;;;;;0.40;0.30;;;23.10;99.30;;;;;;5053745;28;20194;-82
2022/06/09 09:08:06;;;;;;;0.32;0.30;;;23.00;99.60;;;;;;5053715;28;20553;-82
2022/06/09 09:10:41;;;;;;;0.50;0.50;;;23.00;99.70;;;;;;5053809;28;20206;-82
2022/06/09 09:13:24;;;;;;;0.40;0.30;;;22.70;98.50;;;;;;5053798;28;20226;-82
2022/06/09 09:15:54;;;;;;;1.00;0.33;;;22.30;99.60;;;;;;5053745;28;20214;-82
2022/06/09 09:18:35;;;;;;;0.40;0.30;;;22.40;99.90;;;;;;5054214;28;20187;-82
2022/06/09 09:21:16;;;;;;;0.40;0.40;;;22.20;98.90;;;;;;5053389;28;20634;-82
2022/06/09 09:23:52;;;;;;;3.13;0.50;;;22.30;99.90;;;;;;5053481;28;20464;-82
2022/06/09 09:26:28;;;;;;;0.50;0.40;;;22.30;99.90;;;;;;5053193;28;20226;-82
2022/06/09 09:29:02;;;;;;;4.43;0.60;;;22.40;99.10;;;;;;5053606;28;20175;-82
2022/06/09 09:31:44;;;;;;;0.30;0.30;;;22.00;99.10;;;;;;5054041;28;20197;-82
2022/06/09 09:34:17;;;;;;;1.10;0.40;;;21.50;99.70;;;;;;5053642;28;20459;-81
2022/06/09 09:36:48;;;;;;;0.30;0.30;;;21.40;98.50;;;;;;5053314;28;20733;-81
2022/06/09 09:39:18;;;;;;;0.37;0.37;;;21.30;99.90;;;;;;5053064;28;20441;-82
2022/06/09 09:41:45;;;;;;;0.40;0.40;;;21.10;99.90;;;;;;5053507;28;20437;-82
2022/06/09 09:44:18;;;;;;;0.40;0.40;;;21.00;99.90;;;;;;5053067;28;20449;-81
2022/06/09 09:46:50;;;;;;;0.30;0.30;;;20.70;98.60;;;;;;5053389;28;20457;-82
2022/06/09 09:49:25;;;;;;;1.43;0.30;;;20.50;99.90;;;;;;5053102;28;20433;-82
2022/06/09 09:51:52;;;;;;;0.40;0.30;;;20.20;99.90;;;;;;5053211;28;20437;-81
2022/06/09 09:54:23;;;;;;;1.70;0.40;;;20.00;99.90;;;;;;5053237;28;20464;-82
2022/06/09 09:57:06;;;;;;;0.40;0.30;;;19.80;99.90;;;;;;5054338;28;20488;-82
2022/06/09 09:59:44;;;;;;;0.73;0.40;;;19.50;99.90;;;;;;5053715;28;20920;-82
2022/06/09 10:13:52;;;;;;;0.30;0.30;;;20.00;99.90;;;;;;5053074;28;20587;-86
2022/06/09 10:16:22;;;;;;;0.40;0.30;;;20.20;99.90;;;;;;5053007;28;20862;-81
2022/06/09 10:18:54;;;;;;;2.00;0.40;;;20.30;99.90;;;;;;5053265;28;20456;-81
2022/06/09 10:21:23;;;;;;;0.30;0.30;;;20.40;99.90;;;;;;5053365;28;21035;-81
2022/06/09 10:23:55;;;;;;;0.90;0.40;;;20.50;99.90;;;;;;5052589;28;21008;-81
2022/06/09 10:26:27;;;;;;;0.30;0.30;;;20.40;99.90;;;;;;5052546;28;20468;-81
2022/06/09 10:29:02;;;;;;;0.40;0.30;;;20.10;99.60;;;;;;5053116;28;20433;-81
2022/06/09 10:31:44;;;;;;;0.40;0.30;;;20.20;99.90;;;;;;5052861;28;20472;-81
2022/06/09 10:34:23;;;;;;;0.50;0.50;;;20.50;99.30;;;;;;5052604;28;20465;-81
2022/06/09 10:36:58;;;;;;;0.43;0.40;;;20.60;99.90;;;;;;5054113;28;20477;-80
2022/06/09 10:39:36;;;;;;;0.37;0.30;;;20.90;99.70;;;;;;5055006;28;20467;-81
2022/06/09 10:42:10;;;;;;;0.40;0.30;;;21.00;99.50;;;;;;5053187;28;20440;-81
2022/06/09 10:44:44;;;;;;;0.40;0.40;;;21.10;98.10;;;;;;5052971;28;20457;-81
2022/06/09 10:56:04;;;;;;;0.40;0.30;;;21.10;99.00;;;;;;5052515;28;20578;-81
2022/06/09 10:58:34;;;;;;;0.40;0.40;;;21.00;99.40;;;;;;5052895;28;20437;-81
2022/06/09 11:01:01;;;;;;;1.03;0.40;;;20.70;98.50;;;;;;5053052;28;20445;-81
2022/06/09 11:03:45;;;;;;;0.87;0.37;;;20.40;99.50;;;;;;5055617;28;20461;-80
2022/06/09 11:06:26;;;;;;;0.40;0.30;;;20.10;99.60;;;;;;5074841;28;20445;-81
2022/06/09 11:09:07;;;;;;;0.40;0.33;;;20.00;99.90;;;;;;5074199;28;20441;-81
2022/06/09 11:11:47;;;;;;;0.40;0.30;;;19.90;99.90;;;;;;5066826;28;20441;-81
2022/06/09 11:14:48;;;;;;;0.40;0.30;;;19.90;99.90;;;;;;5055845;28;20473;-81
2022/06/09 11:17:28;;;;;;;0.40;0.40;;;19.90;99.90;;;;;;5055643;28;20489;-81
2022/06/09 11:20:06;;;;;;;0.40;0.30;;;19.90;99.90;;;;;;5055987;28;20438;-81
2022/06/09 11:22:40;;;;;;;0.50;0.30;;;19.90;99.50;;;;;;5055633;28;21078;-81
2022/06/09 11:25:25;;;;;;;0.40;0.37;;;20.00;98.80;;;;;;5055217;28;20469;-81
2022/06/09 11:28:06;;;;;;;0.40;0.30;;;20.30;99.90;;;;;;5055867;28;20444;-81
2022/06/09 11:30:45;;;;;;;0.77;0.37;;;20.50;99.90;;;;;;5055457;28;20430;-81
2022/06/09 11:33:22;;;;;;;0.30;0.30;;;20.40;99.90;;;;;;5055912;28;20480;-82
2022/06/09 11:35:56;;;;;;;0.50;0.50;;;20.10;98.40;;;;;;5055666;28;20844;-86
2022/06/09 11:38:47;;;;;;;3.07;0.40;;;20.30;98.40;;;;;;5055831;28;20440;-81
2022/06/09 11:41:28;;;;;;;0.50;0.40;;;20.50;99.00;;;;;;5055613;28;20430;-82
2022/06/09 11:44:07;;;;;;;0.40;0.40;;;20.60;96.40;;;;;;5055489;28;20464;-82
2022/06/09 11:46:38;;;;;;;0.30;0.30;;;20.50;96.80;;;;;;5055496;28;20425;-82
2022/06/09 11:49:10;;;;;;;0.40;0.30;;;20.50;97.70;;;;;;5055397;28;20434;-81
2022/06/09 11:51:37;;;;;;;0.30;0.30;;;20.50;96.60;;;;;;5055413;28;20441;-80
2022/06/09 11:54:07;;;;;;;0.40;0.30;;;20.50;97.90;;;;;;5055189;28;20476;-80
2022/06/09 11:56:40;;;;;;;0.70;0.47;;;20.60;98.90;;;;;;5054863;28;20482;-80
2022/06/09 11:59:20;;;;;;;6.83;0.80;;;20.60;97.70;;;;;;5055272;28;20440;-80
2022/06/09 12:02:06;;;;;;;0.30;0.30;;;20.50;96.30;;;;;;5055471;28;20830;-80
2022/06/09 12:04:57;;;;;;;0.40;0.30;;;20.70;98.10;;;;;;5055055;28;20473;-80
2022/06/09 12:07:40;;;;;;;0.40;0.30;;;20.70;96.80;;;;;;5053266;28;20465;-80
2022/06/09 12:10:28;;;;;;;0.40;0.40;;;20.70;96.80;;;;;;5055017;28;20441;-80
2022/06/09 12:13:20;;;;;;;0.40;0.30;;;20.50;98.30;;;;;;5054839;28;20484;-80
2022/06/09 12:16:02;;;;;;;0.30;0.30;;;20.70;99.40;;;;;;5054717;28;20465;-80
2022/06/09 12:18:37;;;;;;;0.30;0.30;;;20.90;97.30;;;;;;5054585;28;20960;-80
2022/06/09 12:21:11;;;;;;;0.30;0.30;;;20.90;96.90;;;;;;5054585;28;20810;-80
2022/06/09 12:23:41;;;;;;;0.40;0.40;;;21.00;97.30;;;;;;5054673;28;20471;-79
2022/06/09 12:26:28;;;;;;;0.40;0.40;;;21.10;97.60;;;;;;5054412;28;20481;-81
2022/06/09 12:29:16;;;;;;;0.73;0.73;;;21.40;98.50;;;;;;5054413;28;20448;-81
2022/06/09 12:32:28;;;;;;;0.40;0.30;;;21.60;97.70;;;;;;5054700;28;20776;-81
2022/06/09 12:34:57;;;;;;;0.40;0.40;;;21.50;95.80;;;;;;5054438;28;20469;-80
2022/06/09 12:37:28;;;;;;;0.53;0.30;;;21.40;96.30;;;;;;5054093;28;20571;-81
2022/06/09 12:39:58;;;;;;;0.40;0.30;;;21.20;96.60;;;;;;5054388;28;20444;-81
2022/06/09 12:42:28;;;;;;;0.40;0.40;;;21.00;96.40;;;;;;5054444;28;20433;-81
2022/06/09 12:45:03;;;;;;;0.40;0.30;;;21.00;95.80;;;;;;5054264;28;20465;-81
2022/06/09 12:47:30;;;;;;;0.30;0.30;;;20.80;97.70;;;;;;5054293;28;20429;-80
2022/06/09 12:50:00;;;;;;;1.67;0.63;;;20.80;97.50;;;;;;5053938;28;20503;-82
2022/06/09 12:52:33;;;;;;;0.40;0.30;;;20.70;99.00;;;;;;5054486;28;20453;-81
2022/06/09 12:55:02;;;;;;;0.30;0.30;;;20.60;98.10;;;;;;5054105;28;20469;-81
2022/06/09 12:57:31;;;;;;;1.13;0.37;;;20.40;97.70;;;;;;5054265;28;20961;-81
2022/06/09 13:00:07;;;;;;;0.93;0.70;;;20.10;97.60;;;;;;5053716;28;20457;-81
2022/06/09 13:02:36;;;;;;;0.40;0.30;;;19.70;97.50;;;;;;5053956;28;20444;-81
2022/06/09 13:05:18;;;;;;;0.40;0.40;;;19.60;95.50;;;;;;5054223;28;20507;-81
2022/06/09 13:07:50;;;;;;;1.23;0.40;;;19.50;96.10;;;;;;5053949;28;20517;-81
2022/06/09 13:10:22;;;;;;;2.70;0.40;;;19.60;96.40;;;;;;5053569;28;20415;-81
2022/06/09 13:12:53;;;;;;;0.30;0.30;;;19.60;96.50;;;;;;5053482;28;20780;-81
2022/06/09 13:15:38;;;;;;;0.50;0.30;;;19.60;97.10;;;;;;5053824;28;20756;-81
2022/06/09 13:18:13;;;;;;;0.30;0.30;;;19.70;97.80;;;;;;5052893;28;20457;-81
2022/06/09 13:20:42;;;;;;;0.40;0.30;;;19.80;97.60;;;;;;5053713;28;20433;-81
2022/06/09 13:23:12;;;;;;;2.30;0.63;;;19.80;98.30;;;;;;5053520;28;20470;-81
2022/06/09 13:25:40;;;;;;;1.63;0.50;;;19.80;98.80;;;;;;5052399;28;21009;-81
2022/06/09 13:28:17;;;;;;;0.43;0.40;;;19.70;99.40;;;;;;5053275;28;20489;-81
2022/06/09 13:30:51;;;;;;;0.40;0.40;;;19.60;98.30;;;;;;5053574;28;20436;-81
2022/06/09 13:33:31;;;;;;;0.40;0.30;;;19.50;98.90;;;;;;5053410;28;20480;-81